Time;durP1;ratioP1;P1;durP2;ratioP2;P2;SDS_P1;SDS_P2;PMS_P1;PMS_P2;Temp;Humidity;BMP_temperature;BMP_pressure;BME280_temperature;BME280_humidity;BME280_pressure;Samples;Min_cycle;Max_cycle;Signal;HPM_P1;HPM_P2
2023/03/24 00:01:20;;;;;;;27.10;15.93;;;13.60;87.30;;;;;;6064689;23;20185;-71
2023/03/24 00:03:50;;;;;;;25.90;15.27;;;13.60;87.50;;;;;;6063945;23;20705;-72
2023/03/24 00:06:21;;;;;;;26.27;15.33;;;13.60;87.40;;;;;;6065363;23;20198;-71
2023/03/24 00:08:50;;;;;;;29.90;17.00;;;13.60;87.40;;;;;;6065195;23;20779;-72
2023/03/24 00:11:19;;;;;;;28.77;16.23;;;13.60;87.50;;;;;;6064017;23;20190;-72
2023/03/24 00:13:50;;;;;;;29.67;16.70;;;13.50;87.20;;;;;;6064228;23;20282;-73
2023/03/24 00:16:20;;;;;;;28.33;16.57;;;13.50;87.30;;;;;;6064396;23;20186;-72
2023/03/24 00:18:51;;;;;;;33.17;16.50;;;13.50;87.40;;;;;;6064275;23;20166;-73
2023/03/24 00:21:23;;;;;;;29.77;16.37;;;13.50;87.30;;;;;;6065338;23;20163;-72
2023/03/24 00:23:54;;;;;;;30.80;15.97;;;13.40;87.40;;;;;;6064866;23;20155;-72
2023/03/24 00:26:23;;;;;;;28.77;16.80;;;13.40;87.20;;;;;;6065371;23;20162;-72
2023/03/24 00:28:54;;;;;;;31.17;16.83;;;13.40;87.50;;;;;;6064506;23;20162;-72
2023/03/24 00:31:23;;;;;;;26.67;16.33;;;13.40;87.30;;;;;;6063500;23;20699;-72
2023/03/24 00:33:52;;;;;;;28.97;16.47;;;13.30;87.40;;;;;;6062952;23;20194;-72
2023/03/24 00:36:23;;;;;;;31.97;17.53;;;13.30;87.30;;;;;;6064796;23;20277;-73
2023/03/24 00:38:52;;;;;;;29.50;16.47;;;13.30;87.40;;;;;;6064076;23;20159;-72
2023/03/24 00:41:23;;;;;;;31.10;15.53;;;13.30;87.30;;;;;;6062067;23;20604;-72
2023/03/24 00:43:57;;;;;;;30.10;15.93;;;13.30;87.50;;;;;;6062979;23;20253;-72
2023/03/24 00:46:29;;;;;;;31.27;16.80;;;13.30;87.60;;;;;;6064447;23;20202;-72
2023/03/24 00:49:02;;;;;;;28.97;15.40;;;13.30;87.90;;;;;;6065447;23;20166;-72
2023/03/24 00:51:33;;;;;;;29.10;15.67;;;13.30;87.80;;;;;;6063902;23;20162;-72
2023/03/24 00:54:02;;;;;;;25.37;14.80;;;13.30;87.60;;;;;;6064047;23;20187;-71
2023/03/24 00:56:32;;;;;;;24.93;15.57;;;13.30;87.80;;;;;;6065251;23;20257;-72
2023/03/24 00:59:02;;;;;;;30.30;16.27;;;13.30;87.70;;;;;;6064567;23;20199;-72
2023/03/24 01:01:33;;;;;;;25.73;14.43;;;13.30;87.70;;;;;;6064966;23;20166;-72
2023/03/24 01:04:05;;;;;;;30.53;16.13;;;13.30;87.80;;;;;;6063476;23;20757;-72
2023/03/24 01:06:36;;;;;;;33.70;16.63;;;13.30;87.80;;;;;;6064780;23;20178;-72
2023/03/24 01:09:06;;;;;;;35.20;16.63;;;13.20;87.60;;;;;;6064411;23;20230;-73
2023/03/24 01:11:38;;;;;;;31.60;15.73;;;13.20;87.80;;;;;;6062160;23;20194;-72
2023/03/24 01:14:10;;;;;;;28.83;15.67;;;13.20;87.80;;;;;;6064041;23;20218;-72
2023/03/24 01:16:39;;;;;;;27.87;15.07;;;13.20;87.70;;;;;;6064514;23;20159;-72
2023/03/24 01:19:08;;;;;;;28.80;15.23;;;13.20;87.50;;;;;;6063609;23;20182;-72
2023/03/24 01:21:37;;;;;;;27.50;15.93;;;13.20;87.50;;;;;;6062598;23;20282;-72
2023/03/24 01:24:07;;;;;;;28.40;15.43;;;13.20;87.70;;;;;;6065251;23;20171;-72
2023/03/24 01:26:36;;;;;;;24.30;13.70;;;13.30;87.90;;;;;;6062898;23;20188;-73
2023/03/24 01:29:04;;;;;;;28.63;16.00;;;13.30;88.10;;;;;;6066384;23;20182;-72
2023/03/24 01:31:35;;;;;;;30.40;16.40;;;13.30;88.10;;;;;;6063766;23;20174;-72
2023/03/24 01:34:04;;;;;;;25.90;14.97;;;13.30;88.10;;;;;;6063619;23;20193;-72
2023/03/24 01:36:32;;;;;;;26.33;15.10;;;13.20;88.40;;;;;;6063161;23;20174;-72
2023/03/24 01:39:01;;;;;;;26.60;14.80;;;13.30;88.60;;;;;;6060364;23;20700;-72
2023/03/24 01:41:33;;;;;;;26.53;15.37;;;13.20;88.60;;;;;;6060098;23;20191;-72
2023/03/24 01:44:22;;;;;;;29.93;15.57;;;13.30;88.60;;;;;;6061944;23;20170;-71
2023/03/24 01:46:52;;;;;;;29.00;15.13;;;13.20;88.60;;;;;;6063035;23;20226;-72
2023/03/24 01:49:21;;;;;;;26.10;14.47;;;13.30;88.60;;;;;;6064832;23;20175;-72
2023/03/24 01:51:54;;;;;;;22.40;13.53;;;13.30;88.70;;;;;;6061954;23;20182;-72
2023/03/24 01:54:26;;;;;;;26.90;15.27;;;13.30;88.70;;;;;;6065841;23;20181;-71
2023/03/24 01:56:59;;;;;;;27.00;14.40;;;13.30;88.80;;;;;;6063366;23;20205;-72
2023/03/24 01:59:30;;;;;;;30.07;16.10;;;13.30;89.00;;;;;;6065616;23;20163;-72
2023/03/24 02:02:02;;;;;;;29.37;15.40;;;13.20;88.80;;;;;;6064110;23;20226;-72
2023/03/24 02:04:34;;;;;;;27.97;14.43;;;13.20;88.70;;;;;;6066228;23;20159;-71
2023/03/24 02:07:08;;;;;;;24.40;14.83;;;13.20;88.60;;;;;;6064298;23;20219;-71
2023/03/24 02:09:37;;;;;;;23.57;14.30;;;13.20;88.60;;;;;;6065879;23;20217;-71
2023/03/24 02:12:05;;;;;;;26.30;14.97;;;13.10;88.70;;;;;;6065964;23;20527;-71
2023/03/24 02:14:34;;;;;;;29.90;15.63;;;13.10;88.70;;;;;;6065797;23;20245;-73
2023/03/24 02:17:32;;;;;;;28.27;14.47;;;13.10;88.80;;;;;;6064021;23;20207;-73
2023/03/24 02:20:32;;;;;;;28.67;15.97;;;13.10;89.00;;;;;;6067468;23;20209;-72
2023/03/24 02:23:29;;;;;;;29.07;15.80;;;13.00;89.00;;;;;;6059917;23;20179;-71
2023/03/24 02:26:31;;;;;;;30.40;16.60;;;12.90;89.00;;;;;;6066129;23;20210;-72
2023/03/24 02:29:17;;;;;;;30.87;14.93;;;12.90;89.40;;;;;;6060661;23;20186;-73
2023/03/24 02:32:09;;;;;;;26.03;15.77;;;12.80;89.60;;;;;;6065299;23;20236;-71
2023/03/24 02:35:10;;;;;;;28.97;15.73;;;12.80;89.90;;;;;;6064079;23;20482;-72
2023/03/24 02:38:19;;;;;;;26.63;15.23;;;12.70;90.00;;;;;;6065425;23;20213;-72
2023/03/24 02:40:57;;;;;;;29.40;16.27;;;12.70;90.00;;;;;;6063026;23;20285;-72
2023/03/24 02:43:38;;;;;;;25.13;14.83;;;12.60;90.20;;;;;;6067054;23;20158;-72
2023/03/24 02:46:13;;;;;;;33.57;16.20;;;12.60;90.20;;;;;;6063593;23;20241;-72
2023/03/24 02:48:54;;;;;;;27.93;14.80;;;12.60;90.20;;;;;;6062588;23;20502;-72
2023/03/24 02:51:30;;;;;;;28.40;16.23;;;12.60;90.20;;;;;;6064055;23;20600;-73
2023/03/24 02:54:07;;;;;;;29.80;16.30;;;12.50;90.20;;;;;;6063814;23;20483;-72
2023/03/24 02:56:39;;;;;;;33.13;16.70;;;12.50;90.20;;;;;;6065325;23;20163;-72
2023/03/24 02:59:11;;;;;;;30.03;16.23;;;12.50;90.30;;;;;;6061142;23;20166;-72
2023/03/24 03:01:44;;;;;;;28.30;15.47;;;12.50;90.30;;;;;;6063179;23;20190;-71
2023/03/24 03:04:16;;;;;;;31.10;17.10;;;12.40;90.20;;;;;;6066136;23;20609;-71
2023/03/24 03:06:51;;;;;;;25.93;15.50;;;12.40;90.40;;;;;;6065094;23;20631;-73
2023/03/24 03:09:21;;;;;;;28.30;16.07;;;12.40;90.40;;;;;;6066044;23;20169;-72
2023/03/24 03:11:56;;;;;;;30.60;15.93;;;12.40;90.40;;;;;;6066939;23;20215;-71
2023/03/24 03:14:29;;;;;;;30.53;16.07;;;12.30;90.40;;;;;;6061759;23;20182;-72
2023/03/24 03:17:01;;;;;;;28.23;15.93;;;12.30;90.50;;;;;;6061673;23;20218;-72
2023/03/24 03:19:33;;;;;;;34.60;17.10;;;12.30;90.50;;;;;;6062501;23;20174;-72
2023/03/24 03:22:04;;;;;;;29.23;15.53;;;12.30;90.50;;;;;;6067188;23;20219;-71
2023/03/24 03:24:38;;;;;;;29.43;15.87;;;12.20;90.50;;;;;;6062370;23;20162;-72
2023/03/24 03:27:13;;;;;;;31.20;17.23;;;12.20;90.60;;;;;;6065027;23;20490;-71
2023/03/24 03:29:47;;;;;;;29.53;16.13;;;12.20;90.70;;;;;;6064456;23;20158;-72
2023/03/24 03:32:23;;;;;;;28.87;16.63;;;12.20;90.80;;;;;;6065851;23;20162;-72
2023/03/24 03:34:57;;;;;;;29.83;16.47;;;12.20;90.80;;;;;;6060960;23;20179;-72
2023/03/24 03:37:31;;;;;;;33.53;16.70;;;12.20;90.70;;;;;;6062445;23;20166;-71
2023/03/24 03:40:05;;;;;;;29.53;16.53;;;12.20;90.80;;;;;;6062263;23;20162;-71
2023/03/24 03:42:35;;;;;;;33.77;17.40;;;12.20;90.80;;;;;;6063172;23;20210;-74
2023/03/24 03:45:03;;;;;;;27.10;15.37;;;12.20;90.90;;;;;;6062856;23;20699;-72
2023/03/24 03:47:32;;;;;;;30.00;16.83;;;12.20;90.90;;;;;;6064418;23;20178;-72
2023/03/24 03:50:03;;;;;;;27.30;16.27;;;12.10;90.80;;;;;;6065629;23;20182;-72
2023/03/24 03:52:31;;;;;;;27.90;16.17;;;12.10;91.00;;;;;;6064962;23;20701;-72
2023/03/24 03:55:00;;;;;;;27.67;15.33;;;12.10;91.00;;;;;;6066333;23;20521;-72
2023/03/24 03:57:29;;;;;;;29.27;15.70;;;12.10;91.00;;;;;;6065146;23;20212;-72
2023/03/24 04:00:06;;;;;;;29.00;16.23;;;12.10;90.90;;;;;;6065134;23;20253;-72
2023/03/24 04:02:43;;;;;;;27.87;15.10;;;12.10;90.90;;;;;;6065582;23;20194;-72
2023/03/24 04:05:26;;;;;;;28.87;15.90;;;12.10;90.90;;;;;;6066320;23;20165;-72
2023/03/24 04:08:22;;;;;;;29.10;16.73;;;12.10;90.80;;;;;;6065155;23;20187;-72
2023/03/24 04:11:22;;;;;;;30.17;15.63;;;12.10;90.80;;;;;;6063143;23;20237;-72
2023/03/24 04:14:02;;;;;;;32.33;16.20;;;12.10;90.80;;;;;;6050433;23;20207;-72
2023/03/24 04:16:42;;;;;;;31.50;15.87;;;12.10;90.80;;;;;;6064987;23;20182;-72
2023/03/24 04:19:24;;;;;;;27.37;14.87;;;12.10;90.90;;;;;;6065328;23;20167;-72
2023/03/24 04:22:13;;;;;;;27.93;15.40;;;12.10;90.90;;;;;;6065220;23;20214;-75
2023/03/24 04:24:49;;;;;;;26.77;15.23;;;12.10;90.90;;;;;;6064588;23;20222;-72
2023/03/24 04:27:26;;;;;;;36.70;16.60;;;12.10;90.90;;;;;;6063726;23;20170;-72
2023/03/24 04:30:07;;;;;;;30.53;16.93;;;12.10;90.80;;;;;;6060640;23;20612;-72
2023/03/24 04:32:45;;;;;;;36.53;16.70;;;12.10;90.80;;;;;;6061131;23;20163;-73
2023/03/24 04:35:25;;;;;;;29.17;16.10;;;12.10;90.80;;;;;;6064929;23;20179;-72
2023/03/24 04:37:55;;;;;;;34.07;16.93;;;12.10;90.80;;;;;;6060436;23;20166;-73
2023/03/24 04:40:25;;;;;;;28.13;16.33;;;12.10;90.70;;;;;;6064455;23;20632;-75
2023/03/24 04:42:55;;;;;;;28.57;16.53;;;12.10;90.80;;;;;;6061164;23;20657;-73
2023/03/24 04:45:24;;;;;;;31.40;15.80;;;12.10;90.80;;;;;;6060945;23;20558;-71
2023/03/24 04:47:57;;;;;;;35.27;18.47;;;12.10;90.80;;;;;;6061479;23;20447;-75
2023/03/24 04:50:30;;;;;;;44.07;16.90;;;12.10;90.80;;;;;;6065854;23;20214;-72
2023/03/24 04:52:59;;;;;;;27.57;16.33;;;12.10;90.80;;;;;;6064720;23;20182;-71
2023/03/24 04:55:48;;;;;;;30.90;16.00;;;12.10;90.80;;;;;;6064345;23;20203;-72
2023/03/24 04:58:16;;;;;;;35.57;17.93;;;12.10;90.80;;;;;;6063866;23;20202;-73
2023/03/24 05:00:45;;;;;;;30.93;15.80;;;12.20;90.80;;;;;;6063996;23;20178;-73
2023/03/24 05:03:16;;;;;;;31.93;16.70;;;12.20;90.80;;;;;;6066036;23;20659;-72
2023/03/24 05:05:47;;;;;;;32.80;16.57;;;12.20;90.80;;;;;;6065003;23;20597;-74
2023/03/24 05:08:16;;;;;;;35.60;17.73;;;12.20;90.80;;;;;;6064739;23;20536;-73
2023/03/24 05:10:45;;;;;;;38.93;19.73;;;12.20;90.90;;;;;;6065756;23;20190;-73
2023/03/24 05:13:15;;;;;;;41.70;21.53;;;12.20;91.00;;;;;;6064471;23;20178;-72
2023/03/24 05:15:43;;;;;;;38.47;19.00;;;12.20;90.90;;;;;;6066874;23;20233;-73
2023/03/24 05:18:12;;;;;;;34.70;17.73;;;12.30;91.10;;;;;;6065485;23;20178;-73
2023/03/24 05:20:41;;;;;;;32.87;17.43;;;12.30;91.20;;;;;;6065690;23;20265;-72
2023/03/24 05:23:10;;;;;;;31.77;16.93;;;12.30;91.40;;;;;;6066934;23;20628;-73
2023/03/24 05:25:38;;;;;;;28.87;16.53;;;12.30;91.30;;;;;;6066028;23;20684;-74
2023/03/24 05:28:07;;;;;;;33.23;17.30;;;12.30;91.50;;;;;;6065667;23;20178;-73
2023/03/24 05:30:35;;;;;;;34.03;18.17;;;12.40;91.40;;;;;;6063519;23;20559;-73
2023/03/24 05:33:03;;;;;;;32.17;16.63;;;12.40;91.40;;;;;;6063083;23;20182;-74
2023/03/24 05:35:32;;;;;;;33.30;16.83;;;12.40;91.40;;;;;;6061642;23;20230;-72
2023/03/24 05:38:01;;;;;;;37.37;18.50;;;12.40;91.50;;;;;;6060862;23;20200;-73
2023/03/24 05:40:30;;;;;;;32.97;16.37;;;12.40;91.60;;;;;;6063801;23;20229;-73
2023/03/24 05:42:58;;;;;;;34.43;16.93;;;12.40;91.60;;;;;;6063686;23;20245;-72
2023/03/24 05:45:28;;;;;;;32.33;17.63;;;12.40;91.60;;;;;;6068232;23;20211;-73
2023/03/24 05:47:56;;;;;;;32.03;16.87;;;12.50;91.70;;;;;;6069724;23;20178;-72
2023/03/24 05:50:25;;;;;;;30.67;16.20;;;12.50;91.60;;;;;;6068268;23;20182;-73
2023/03/24 05:52:53;;;;;;;30.67;16.53;;;12.50;91.60;;;;;;6066596;23;20229;-72
2023/03/24 05:55:24;;;;;;;29.97;14.93;;;12.50;91.60;;;;;;6067626;23;20182;-72
2023/03/24 05:57:52;;;;;;;28.10;16.00;;;12.60;91.60;;;;;;6069378;23;20206;-72
2023/03/24 06:00:22;;;;;;;30.90;15.83;;;12.60;91.70;;;;;;6068619;23;20179;-73
2023/03/24 06:02:51;;;;;;;29.43;15.90;;;12.60;91.70;;;;;;6069012;23;20186;-72
2023/03/24 06:05:19;;;;;;;31.70;15.47;;;12.60;91.70;;;;;;6067780;23;20178;-72
2023/03/24 06:07:48;;;;;;;30.13;15.10;;;12.70;91.70;;;;;;6069220;23;20234;-74
2023/03/24 06:10:17;;;;;;;24.57;15.67;;;12.70;91.70;;;;;;6068102;23;20175;-73
2023/03/24 06:12:47;;;;;;;30.70;16.17;;;12.80;91.90;;;;;;6068604;23;20174;-72
2023/03/24 06:15:16;;;;;;;31.20;16.43;;;12.80;91.70;;;;;;6064423;23;20182;-73
2023/03/24 06:17:44;;;;;;;25.87;14.63;;;12.90;91.70;;;;;;6067896;23;20557;-72
2023/03/24 06:20:15;;;;;;;28.27;15.90;;;12.90;91.70;;;;;;6068032;23;20178;-72
2023/03/24 06:22:44;;;;;;;26.27;15.27;;;12.90;91.80;;;;;;6069501;23;20519;-73
2023/03/24 06:25:15;;;;;;;25.27;14.10;;;12.90;91.70;;;;;;6066773;23;20513;-72
2023/03/24 06:27:46;;;;;;;32.47;16.40;;;13.00;91.70;;;;;;6068107;23;20158;-74
2023/03/24 06:30:15;;;;;;;28.63;14.67;;;13.00;91.80;;;;;;6069014;23;20166;-74
2023/03/24 06:32:45;;;;;;;29.23;15.30;;;13.10;91.80;;;;;;6067488;23;20182;-74
2023/03/24 06:35:14;;;;;;;31.33;15.80;;;13.20;91.80;;;;;;6069241;23;20190;-74
2023/03/24 06:37:43;;;;;;;26.00;13.97;;;13.30;91.80;;;;;;6068173;23;20205;-74
2023/03/24 06:40:15;;;;;;;27.17;16.00;;;13.30;91.80;;;;;;6063011;23;20186;-73
2023/03/24 06:42:43;;;;;;;29.07;14.67;;;13.50;91.90;;;;;;6066462;23;20466;-75
2023/03/24 06:45:13;;;;;;;27.47;15.17;;;13.50;91.90;;;;;;6068807;23;20238;-72
2023/03/24 06:47:41;;;;;;;27.63;15.93;;;13.60;91.90;;;;;;6068280;23;20360;-71
2023/03/24 06:50:11;;;;;;;25.43;14.80;;;13.70;91.70;;;;;;6066758;23;20179;-74
2023/03/24 06:52:40;;;;;;;31.00;14.83;;;13.80;91.60;;;;;;6066829;23;20183;-72
2023/03/24 06:55:09;;;;;;;24.00;13.93;;;13.90;91.60;;;;;;6067069;23;20167;-73
2023/03/24 06:57:37;;;;;;;23.97;13.73;;;14.00;91.50;;;;;;6067887;23;20214;-73
2023/03/24 07:00:09;;;;;;;23.33;13.03;;;14.10;91.50;;;;;;6068357;23;20182;-73
2023/03/24 07:02:39;;;;;;;26.47;14.50;;;14.10;91.40;;;;;;6066158;23;20166;-73
2023/03/24 07:05:09;;;;;;;26.33;13.77;;;14.20;91.30;;;;;;6068508;23;20186;-73
2023/03/24 07:07:40;;;;;;;22.37;13.47;;;14.30;91.30;;;;;;6067846;23;20163;-72
2023/03/24 07:10:12;;;;;;;26.03;13.87;;;14.40;91.30;;;;;;6078958;23;20202;-74
2023/03/24 07:12:41;;;;;;;25.10;13.13;;;14.50;91.10;;;;;;6067518;23;20489;-72
2023/03/24 07:15:10;;;;;;;21.27;12.03;;;14.60;91.00;;;;;;6067930;23;20242;-73
2023/03/24 07:17:41;;;;;;;21.63;11.93;;;14.70;91.00;;;;;;6066038;23;20253;-73
2023/03/24 07:20:10;;;;;;;24.27;13.33;;;14.80;90.60;;;;;;6064239;23;20682;-73
2023/03/24 07:22:38;;;;;;;22.03;11.77;;;14.90;90.50;;;;;;6066342;23;20226;-73
2023/03/24 07:25:07;;;;;;;25.43;11.77;;;14.90;90.30;;;;;;6067939;23;20186;-72
2023/03/24 07:27:36;;;;;;;22.87;12.97;;;15.00;90.30;;;;;;6061263;23;20230;-75
2023/03/24 07:30:09;;;;;;;19.07;11.47;;;15.10;90.20;;;;;;6059958;23;20618;-72
2023/03/24 07:32:45;;;;;;;20.67;12.20;;;15.20;90.20;;;;;;6064814;23;20700;-73
2023/03/24 07:35:13;;;;;;;22.67;12.40;;;15.20;90.00;;;;;;6066582;23;20162;-72
2023/03/24 07:37:42;;;;;;;21.70;12.00;;;15.30;89.50;;;;;;6066251;23;20195;-72
2023/03/24 07:40:12;;;;;;;19.67;11.17;;;15.50;89.70;;;;;;6065735;23;20182;-73
2023/03/24 07:42:41;;;;;;;16.90;9.83;;;15.50;88.60;;;;;;6065846;23;20211;-72
2023/03/24 07:45:11;;;;;;;18.80;10.50;;;15.60;88.60;;;;;;6067131;23;20195;-72
2023/03/24 07:47:44;;;;;;;21.00;9.83;;;15.70;88.30;;;;;;6066412;23;20178;-72
2023/03/24 07:50:13;;;;;;;19.00;10.47;;;15.80;87.80;;;;;;6064786;23;20167;-74
2023/03/24 07:52:46;;;;;;;21.60;10.27;;;15.90;87.10;;;;;;6065895;23;20185;-73
2023/03/24 07:55:15;;;;;;;17.27;10.07;;;16.00;86.20;;;;;;6066171;23;20167;-73
2023/03/24 07:57:47;;;;;;;16.37;10.37;;;16.10;85.20;;;;;;6065612;23;20275;-72
2023/03/24 08:00:17;;;;;;;20.13;11.67;;;16.20;84.60;;;;;;6064657;23;20592;-74
2023/03/24 08:02:48;;;;;;;21.70;11.13;;;16.30;83.50;;;;;;6065385;23;20182;-73
2023/03/24 08:05:18;;;;;;;19.33;11.57;;;16.30;83.00;;;;;;6065086;23;20249;-72
2023/03/24 08:07:52;;;;;;;20.23;12.53;;;16.40;82.70;;;;;;6063207;23;20170;-72
2023/03/24 08:10:22;;;;;;;17.37;11.50;;;16.50;82.70;;;;;;6064074;23;20197;-73
2023/03/24 08:12:50;;;;;;;17.30;10.60;;;16.60;82.60;;;;;;6066518;23;20197;-75
2023/03/24 08:15:19;;;;;;;20.17;11.10;;;16.70;82.30;;;;;;6064004;23;20517;-72
2023/03/24 08:17:50;;;;;;;29.17;12.10;;;16.70;82.50;;;;;;6065940;23;20198;-73
2023/03/24 08:20:20;;;;;;;19.33;11.43;;;16.80;82.60;;;;;;6065058;23;20592;-72
2023/03/24 08:22:49;;;;;;;25.07;12.17;;;16.90;81.80;;;;;;6065706;23;20181;-73
2023/03/24 08:25:19;;;;;;;19.90;11.90;;;16.90;81.90;;;;;;6063755;23;20242;-76
2023/03/24 08:27:47;;;;;;;18.40;11.83;;;17.00;81.70;;;;;;6062875;23;20229;-73
2023/03/24 08:30:18;;;;;;;24.83;11.70;;;17.00;81.60;;;;;;6065362;23;20186;-72
2023/03/24 08:32:50;;;;;;;18.57;10.67;;;17.10;81.90;;;;;;6065603;23;20170;-72
2023/03/24 08:35:21;;;;;;;20.23;11.40;;;17.20;82.20;;;;;;6065611;23;20163;-72
2023/03/24 08:37:50;;;;;;;19.33;11.00;;;17.30;81.00;;;;;;6063818;23;20238;-75
2023/03/24 08:40:22;;;;;;;19.47;11.23;;;17.30;81.30;;;;;;6065183;23;20503;-74
2023/03/24 08:42:52;;;;;;;19.97;11.13;;;17.40;80.70;;;;;;6067324;23;20166;-73
2023/03/24 08:45:22;;;;;;;19.57;11.37;;;17.50;80.40;;;;;;6066362;23;20179;-73
2023/03/24 08:47:53;;;;;;;18.17;11.57;;;17.50;79.80;;;;;;6063808;23;20155;-73
2023/03/24 08:50:24;;;;;;;20.13;12.33;;;17.60;79.40;;;;;;6064843;23;20162;-73
2023/03/24 08:52:53;;;;;;;16.93;10.53;;;17.70;79.70;;;;;;6063616;23;20171;-76
2023/03/24 08:55:24;;;;;;;19.10;10.57;;;17.80;79.20;;;;;;6065664;23;20198;-73
2023/03/24 08:57:53;;;;;;;18.30;10.67;;;17.80;79.30;;;;;;6064520;23;20210;-74
2023/03/24 09:00:22;;;;;;;21.83;11.33;;;17.90;79.50;;;;;;6066618;23;20178;-72
2023/03/24 09:02:53;;;;;;;17.20;10.73;;;17.90;79.00;;;;;;6065750;23;20175;-75
2023/03/24 09:05:24;;;;;;;17.97;11.27;;;18.00;78.00;;;;;;6066399;23;20159;-72
2023/03/24 09:08:11;;;;;;;17.87;10.90;;;18.10;77.90;;;;;;6065678;23;20214;-73
2023/03/24 09:10:52;;;;;;;15.93;9.67;;;18.10;76.30;;;;;;6067592;23;20249;-74
2023/03/24 09:13:21;;;;;;;17.37;10.37;;;18.10;76.80;;;;;;6067971;23;20166;-73
2023/03/24 09:15:51;;;;;;;15.80;9.03;;;18.20;76.50;;;;;;6064801;23;20174;-73
2023/03/24 09:18:22;;;;;;;16.73;9.57;;;18.20;76.20;;;;;;6065710;23;20185;-73
2023/03/24 09:20:51;;;;;;;17.80;10.27;;;18.30;75.20;;;;;;6066928;23;20166;-73
2023/03/24 09:23:20;;;;;;;17.27;10.47;;;18.30;75.00;;;;;;6067283;23;20481;-72
2023/03/24 09:25:49;;;;;;;16.30;9.60;;;18.40;75.50;;;;;;6065398;23;20649;-74
2023/03/24 09:28:18;;;;;;;17.10;9.80;;;18.50;75.80;;;;;;6065216;23;20178;-73
2023/03/24 09:30:47;;;;;;;16.93;10.77;;;18.50;74.60;;;;;;6065519;23;20174;-73
2023/03/24 09:33:16;;;;;;;17.30;9.37;;;18.60;74.80;;;;;;6067206;23;20261;-72
2023/03/24 09:35:45;;;;;;;15.43;9.27;;;18.70;74.30;;;;;;6065819;23;20233;-75
2023/03/24 09:38:14;;;;;;;16.20;8.70;;;18.70;73.80;;;;;;6064231;23;20218;-73
2023/03/24 09:40:43;;;;;;;15.97;9.07;;;18.80;74.40;;;;;;6062925;23;20209;-72
2023/03/24 09:43:20;;;;;;;16.83;9.63;;;18.90;74.20;;;;;;6066770;23;20186;-72
2023/03/24 09:45:51;;;;;;;15.33;9.07;;;18.90;73.10;;;;;;6066530;23;20543;-73
2023/03/24 09:48:26;;;;;;;13.47;8.17;;;19.10;73.30;;;;;;6067114;23;20155;-73
2023/03/24 09:51:00;;;;;;;14.17;8.33;;;19.10;71.90;;;;;;6067045;23;20210;-72
2023/03/24 09:53:35;;;;;;;17.17;8.53;;;19.20;71.90;;;;;;6066734;23;20588;-73
2023/03/24 09:56:12;;;;;;;15.17;8.60;;;19.30;71.90;;;;;;6066444;23;20541;-72
2023/03/24 09:58:41;;;;;;;12.63;7.20;;;19.30;69.70;;;;;;6066332;23;20202;-72
2023/03/24 10:01:14;;;;;;;13.37;7.63;;;19.30;68.20;;;;;;6064101;23;20179;-72
2023/03/24 10:03:43;;;;;;;14.70;7.93;;;19.40;68.80;;;;;;6066037;23;20162;-73
2023/03/24 10:06:20;;;;;;;13.00;7.47;;;19.40;68.90;;;;;;6064840;23;20217;-72
2023/03/24 10:08:54;;;;;;;14.77;9.25;;;19.50;70.10;;;;;;6063778;23;20167;-72
2023/03/24 10:11:28;;;;;;;25.50;9.65;;;19.60;69.70;;;;;;6065129;23;20158;-73
2023/03/24 10:14:13;;;;;;;14.50;8.70;;;19.70;69.60;;;;;;6067306;23;20158;-72
2023/03/24 10:16:49;;;;;;;12.83;8.27;;;19.70;69.70;;;;;;6066601;23;20601;-72
2023/03/24 10:19:28;;;;;;;13.10;8.47;;;19.80;69.80;;;;;;6066930;23;20178;-72
2023/03/24 10:22:06;;;;;;;13.68;8.18;;;19.90;70.00;;;;;;6065836;23;20173;-71
2023/03/24 10:24:41;;;;;;;13.60;7.35;;;19.90;68.50;;;;;;6062437;23;20221;-72
2023/03/24 10:27:16;;;;;;;16.08;8.73;;;20.00;68.00;;;;;;6063226;23;20547;-76
2023/03/24 10:29:45;;;;;;;13.68;9.05;;;20.10;68.00;;;;;;6066193;23;20166;-72
2023/03/24 10:32:20;;;;;;;16.08;8.73;;;20.10;67.80;;;;;;6066638;23;20178;-73
2023/03/24 10:34:54;;;;;;;14.73;8.57;;;20.20;67.50;;;;;;6067937;23;20202;-72
2023/03/24 10:37:24;;;;;;;17.02;8.20;;;20.30;67.50;;;;;;6066281;23;20162;-73
2023/03/24 10:39:52;;;;;;;15.93;8.00;;;20.30;66.90;;;;;;6067468;23;20202;-73
2023/03/24 10:42:28;;;;;;;15.32;7.50;;;20.40;66.40;;;;;;6067360;23;20179;-73
2023/03/24 10:44:57;;;;;;;11.10;7.00;;;20.50;66.20;;;;;;6066909;23;20607;-73
2023/03/24 10:47:28;;;;;;;13.67;7.60;;;20.50;65.80;;;;;;6067145;23;20395;-73
2023/03/24 10:50:01;;;;;;;10.77;6.45;;;20.60;64.70;;;;;;6066334;23;20166;-72
2023/03/24 10:52:47;;;;;;;12.32;6.43;;;20.60;64.50;;;;;;6065916;23;20237;-72
2023/03/24 10:55:17;;;;;;;10.82;6.82;;;20.70;63.00;;;;;;6068414;23;20159;-73
2023/03/24 10:57:49;;;;;;;12.85;6.57;;;20.70;63.20;;;;;;6066668;23;20532;-73
2023/03/24 11:00:25;;;;;;;11.57;6.85;;;20.70;62.90;;;;;;6067918;23;20274;-72
2023/03/24 11:02:57;;;;;;;10.63;5.90;;;20.80;62.50;;;;;;6065651;23;20166;-73
2023/03/24 11:05:32;;;;;;;10.80;5.57;;;20.80;62.00;;;;;;6066348;23;20490;-74
2023/03/24 11:08:15;;;;;;;10.43;6.18;;;20.80;61.70;;;;;;6066660;23;20158;-77
2023/03/24 11:10:44;;;;;;;12.02;6.60;;;21.00;62.50;;;;;;6067698;23;20159;-72
2023/03/24 11:13:18;;;;;;;7.50;4.97;;;21.10;62.80;;;;;;6066892;23;20183;-74
2023/03/24 11:15:55;;;;;;;9.80;6.10;;;21.10;61.20;;;;;;6067370;23;20162;-72
2023/03/24 11:18:24;;;;;;;10.82;5.85;;;21.20;60.20;;;;;;6068253;23;20167;-73
2023/03/24 11:20:57;;;;;;;11.18;5.85;;;21.20;60.20;;;;;;6066518;23;20629;-73
2023/03/24 11:23:31;;;;;;;12.65;6.45;;;21.30;59.70;;;;;;6065424;23;20253;-72
2023/03/24 11:26:08;;;;;;;9.80;4.97;;;21.30;60.20;;;;;;6066671;23;20162;-72
2023/03/24 11:28:40;;;;;;;11.85;5.53;;;21.30;59.10;;;;;;6068041;23;20155;-72
2023/03/24 11:31:10;;;;;;;9.75;5.95;;;21.40;57.80;;;;;;6063260;23;20356;-74
2023/03/24 11:33:46;;;;;;;9.88;6.47;;;21.50;58.00;;;;;;6065793;23;20163;-73
2023/03/24 11:36:38;;;;;;;12.40;6.43;;;21.50;58.60;;;;;;6066119;23;20608;-73
2023/03/24 11:39:13;;;;;;;11.95;6.40;;;21.60;58.30;;;;;;6067082;23;20643;-73
2023/03/24 11:41:44;;;;;;;9.88;5.90;;;21.70;57.40;;;;;;6065466;23;20217;-73
2023/03/24 11:44:19;;;;;;;12.85;6.78;;;21.70;58.20;;;;;;6064256;23;20163;-74
2023/03/24 11:46:52;;;;;;;10.85;6.57;;;21.80;58.40;;;;;;6065024;23;20214;-73
2023/03/24 11:49:27;;;;;;;13.52;5.28;;;21.90;57.80;;;;;;6066959;23;20217;-73
2023/03/24 11:51:56;;;;;;;12.48;4.93;;;21.90;56.80;;;;;;6066953;23;20225;-75
2023/03/24 11:54:30;;;;;;;8.05;5.25;;;22.00;56.70;;;;;;6065583;23;20174;-73
2023/03/24 11:57:04;;;;;;;9.23;5.50;;;22.10;57.40;;;;;;6067760;23;20206;-73
2023/03/24 11:59:37;;;;;;;11.57;5.25;;;22.10;56.40;;;;;;6068409;23;20179;-74
2023/03/24 12:02:16;;;;;;;10.15;5.60;;;22.20;56.60;;;;;;6066706;23;20221;-74
2023/03/24 12:05:09;;;;;;;9.05;5.00;;;22.20;56.10;;;;;;6067372;23;20217;-75
2023/03/24 12:08:06;;;;;;;11.75;6.18;;;22.30;55.80;;;;;;6067894;23;20391;-73
2023/03/24 12:10:49;;;;;;;8.85;5.10;;;22.40;55.70;;;;;;6067928;23;20542;-74
2023/03/24 12:13:28;;;;;;;9.57;4.80;;;22.50;55.70;;;;;;6066514;23;20163;-73
2023/03/24 12:16:19;;;;;;;7.93;4.85;;;22.50;55.90;;;;;;6066355;23;20158;-73
2023/03/24 12:19:20;;;;;;;9.35;5.10;;;22.50;53.30;;;;;;6067572;23;20165;-73
2023/03/24 12:21:57;;;;;;;12.70;5.53;;;22.60;53.70;;;;;;6067367;23;20194;-73
2023/03/24 12:24:42;;;;;;;11.23;5.10;;;22.70;54.20;;;;;;6067046;23;20465;-73
2023/03/24 12:27:25;;;;;;;7.75;5.57;;;22.80;54.10;;;;;;6066586;23;20163;-73
2023/03/24 12:30:01;;;;;;;8.73;4.50;;;22.90;54.00;;;;;;6065661;23;20601;-73
2023/03/24 12:32:46;;;;;;;8.77;4.50;;;22.90;52.80;;;;;;6066807;23;20169;-74
2023/03/24 12:35:50;;;;;;;11.70;5.95;;;23.00;52.40;;;;;;6063858;23;20247;-72
2023/03/24 12:38:38;;;;;;;9.05;4.70;;;23.00;52.60;;;;;;6066557;23;20159;-73
2023/03/24 12:41:23;;;;;;;7.78;4.63;;;23.10;52.50;;;;;;6063312;23;20270;-73
2023/03/24 12:44:11;;;;;;;9.05;4.60;;;23.10;51.90;;;;;;6065347;23;20162;-73
2023/03/24 12:46:46;;;;;;;11.65;4.20;;;23.10;52.50;;;;;;6062358;23;20162;-72
2023/03/24 12:49:41;;;;;;;10.35;4.43;;;23.10;52.00;;;;;;6064725;23;20182;-73
2023/03/24 12:52:28;;;;;;;7.05;3.70;;;23.20;51.90;;;;;;6064312;23;20597;-73
2023/03/24 12:55:03;;;;;;;8.25;4.30;;;23.30;51.30;;;;;;6066857;23;20358;-72
2023/03/24 12:57:38;;;;;;;7.35;3.33;;;23.40;51.40;;;;;;6065874;23;20202;-72
2023/03/24 13:00:16;;;;;;;8.65;3.95;;;23.60;51.10;;;;;;6066931;23;20573;-73
2023/03/24 13:02:51;;;;;;;10.30;4.05;;;23.70;50.50;;;;;;6067181;23;20170;-73